Terminal Aerodrome Forecast
Issued by NWS Wilmington, NC

Home | Current Version | Previous Version | Text Only | Print | Product List | Glossary On
Versions: 1 2 3 4 5 6 7 8 9 10 11 12 13 14
000
FTUS42 KILM 031127
TAFFLO
TAF
KFLO 031127Z 0312/0412 02008KT P6SM FEW120 SCT250
     FM040000 04003KT P6SM SCT150 BKN250
     FM040700 VRB02KT P6SM OVC050
      AMD NOT SKED=

USA.gov is the U.S. government's official web portal to all federal, state and local government web resources and services.